Terminal Aerodrome Forecast
Issued by NWS Cleveland, OH

Home | Current Version | Previous Version | Graphics & Text | Print | Product List | Glossary On
Versions: 1 2 3 4 5 6 7 8 9 10 11 12 13 14 15 16 17 18 19 20 21 22 23
000
FTUS41 KCLE 191140
TAFYNG
TAF
KYNG 191140Z 1912/2012 23005KT P6SM OVC008
     FM192000 20005KT P6SM BKN100 OVC250
     FM200000 11005KT P6SM OVC100
     FM201100 11005KT 6SM -RA OVC040=

USA.gov is the U.S. government's official web portal to all federal, state and local government web resources and services.